Weather at Adams Place Heliport

Public forecast

Using degrees Fahrenheit for public forecast. Weather courtesy of forecast.io.

Closest aviation weather report (METAR) to Adams Place Heliport

Closest report is Prescott International Airport - Ernest A. Love Field, 5.3 nm (9.9 km) SW. Retrieved 2021/06/23 00:53 UTC (59 minutes ago):

KPRC 230053Z 27011KT 10SM CLR 31/01 A3007 RMK AO2 SLP091 T03110006

Closest aviation forecast (TAF) to Adams Place Heliport

Closest forecast is Prescott International Airport - Ernest A. Love Field, 5.3 nm (9.9 km) SW. Retrieved 2021-06-23 00:22 UTC (2 hours ago):

TAF KPRC 222320Z 2300/2324 25010G16KT P6SM BKN150 FM230400 20007KT P6SM OVC110 FM231200 VRB06KT P6SM VCSH BKN090 FM231800 23010G16KT P6SM -SHRA BKN080 PROB30 2320/2324 5SM TS BR OVC050CB